createdAt,value
2018-05-21T00:05:32.251Z,12.86
2018-05-21T00:11:27.242Z,12.89
2018-05-21T00:17:22.262Z,7.73
2018-05-21T00:23:17.231Z,7.47
2018-05-21T00:29:12.240Z,7.91
2018-05-21T00:35:07.277Z,7.55
2018-05-21T00:41:02.260Z,8.64
2018-05-21T00:46:57.248Z,5.83
2018-05-21T00:52:52.223Z,5.67
2018-05-21T00:58:47.257Z,8.02
2018-05-21T01:04:42.229Z,7.51
2018-05-21T01:10:37.263Z,9.61
2018-05-21T01:16:32.300Z,7.34
2018-05-21T01:22:27.230Z,6.71
2018-05-21T01:28:22.262Z,8.88
2018-05-21T01:34:17.236Z,7.46
2018-05-21T01:40:12.249Z,11.94
2018-05-21T01:46:07.273Z,8.08
2018-05-21T01:52:02.266Z,9.88
2018-05-21T01:57:57.236Z,7.51
2018-05-21T02:03:52.260Z,7.06
2018-05-21T02:09:47.255Z,9.2
2018-05-21T02:15:42.218Z,9.25
2018-05-21T02:21:37.253Z,10.06
2018-05-21T02:27:32.239Z,8.6
2018-05-21T02:33:27.234Z,7.45
2018-05-21T02:39:22.278Z,14.77
2018-05-21T02:45:17.247Z,6.49
2018-05-21T02:51:12.245Z,8.45
2018-05-21T02:57:07.242Z,7.34
2018-05-21T03:03:02.233Z,7.48
2018-05-21T03:08:57.238Z,9.81
2018-05-21T03:14:52.259Z,7.96
2018-05-21T03:20:47.260Z,10.03
2018-05-21T03:26:42.263Z,7.04
2018-05-21T03:32:37.275Z,9.04
2018-05-21T03:38:32.266Z,6.85
2018-05-21T03:44:27.260Z,7.94
2018-05-21T03:50:22.238Z,10.18
2018-05-21T03:56:17.248Z,9.1
2018-05-21T04:02:12.249Z,9.54
2018-05-21T04:08:07.269Z,9.44
2018-05-21T04:14:02.243Z,9.98
2018-05-21T04:19:57.251Z,8.96
2018-05-21T04:25:52.261Z,11.08
2018-05-21T04:31:47.278Z,10.89
2018-05-21T04:37:42.261Z,8.64
2018-05-21T04:43:37.263Z,11.42
2018-05-21T04:49:32.271Z,12.77
2018-05-21T04:55:27.240Z,8.6
2018-05-21T05:01:22.286Z,12.75
2018-05-21T05:07:17.328Z,9.98
2018-05-21T05:13:12.280Z,9.56
2018-05-21T05:19:07.248Z,11.42
2018-05-21T05:25:02.294Z,9.52
2018-05-21T05:30:57.242Z,11.23
2018-05-21T05:36:52.291Z,12.02
2018-05-21T05:42:47.256Z,9.93
2018-05-21T05:48:42.297Z,7.9
2018-05-21T05:54:37.239Z,10.09
2018-05-21T06:00:32.250Z,10.21
2018-05-21T06:06:27.303Z,11.12
2018-05-21T06:12:22.391Z,9.98
2018-05-21T06:18:17.273Z,9.6
2018-05-21T06:24:12.286Z,10.4
2018-05-21T06:30:07.244Z,11.41
2018-05-21T06:36:02.316Z,12.73
2018-05-21T06:41:57.256Z,8.44
2018-05-21T06:47:52.376Z,9.22
2018-05-21T06:53:47.295Z,10.47
2018-05-21T06:59:42.408Z,8.89
2018-05-21T07:05:37.316Z,9.98
2018-05-21T07:11:32.273Z,9.9
2018-05-21T07:17:27.328Z,8.79
2018-05-21T07:23:22.274Z,9.64
2018-05-21T07:29:17.279Z,9.58
2018-05-21T07:35:12.277Z,10.39
2018-05-21T07:41:08.073Z,7.3
2018-05-21T07:47:02.318Z,8.67
2018-05-21T07:52:57.289Z,8.84
2018-05-21T07:58:52.423Z,7.16
2018-05-21T08:04:47.311Z,10.53
2018-05-21T08:10:42.334Z,7.38
2018-05-21T08:16:37.517Z,8.42
2018-05-21T08:22:32.311Z,6.21
2018-05-21T08:28:27.297Z,9.38
2018-05-21T08:34:22.313Z,7.09
2018-05-21T08:40:17.325Z,12.09
2018-05-21T08:46:12.366Z,7.04
2018-05-21T08:52:07.321Z,10.92
2018-05-21T08:58:02.316Z,7.13
2018-05-21T09:03:57.342Z,7.32
2018-05-21T09:09:52.384Z,8.63
2018-05-21T09:15:47.323Z,9.09
2018-05-21T09:21:42.321Z,9.09
2018-05-21T09:27:37.351Z,10.38
2018-05-21T09:33:32.341Z,7.05
2018-05-21T09:39:27.340Z,6.81
2018-05-21T09:45:22.322Z,7.26
2018-05-21T09:51:17.353Z,6.93
2018-05-21T09:57:12.388Z,7.12
2018-05-21T10:03:07.343Z,7.11
2018-05-21T10:09:02.362Z,8
2018-05-21T10:14:57.369Z,9.72
2018-05-21T10:20:52.325Z,10.73
2018-05-21T10:26:47.349Z,6.83
2018-05-21T10:32:42.423Z,6.54
2018-05-21T10:38:37.374Z,7.94
2018-05-21T10:44:32.354Z,8.78
2018-05-21T10:50:27.434Z,9.4
2018-05-21T10:56:22.541Z,7.35
2018-05-21T11:02:17.401Z,9.19
2018-05-21T11:08:12.437Z,9.07
2018-05-21T11:14:07.350Z,8.41
2018-05-21T11:20:02.596Z,7.35
2018-05-21T11:25:57.421Z,10.25
2018-05-21T11:31:52.417Z,9.07
2018-05-21T11:37:47.411Z,8.38
2018-05-21T11:43:42.388Z,7.47
2018-05-21T11:49:37.428Z,9.44
2018-05-21T11:55:32.402Z,7.4
2018-05-21T12:01:27.440Z,9.45
2018-05-21T12:07:22.440Z,7.28
2018-05-21T12:13:17.424Z,9.85
2018-05-21T12:19:12.413Z,7.21
2018-05-21T12:25:07.429Z,10.1
2018-05-21T12:31:02.377Z,7.25
2018-05-21T12:43:23.946Z,5.42
2018-05-21T12:49:18.911Z,5.06
2018-05-21T12:55:13.911Z,5.85
2018-05-21T13:01:08.931Z,8.7
2018-05-21T13:07:03.935Z,10.71
2018-05-21T13:12:58.921Z,9.22
2018-05-21T13:18:53.928Z,10.96
2018-05-21T13:24:48.999Z,11.99
2018-05-21T13:30:43.950Z,10.66
2018-05-21T13:36:38.930Z,9.67
2018-05-21T13:42:33.999Z,8.88
2018-05-21T13:48:28.958Z,11.43
2018-05-21T13:54:23.980Z,14.61
2018-05-21T14:00:18.974Z,7.45
2018-05-21T14:06:13.947Z,11.29
2018-05-21T14:12:08.956Z,11.53
2018-05-21T14:18:03.984Z,11.02
2018-05-21T14:23:58.985Z,8.76
2018-05-21T14:29:54.014Z,11.4
2018-05-21T14:35:49.012Z,9.19
2018-05-21T14:41:44.026Z,9.95
2018-05-21T14:47:38.987Z,12.07
2018-05-21T14:53:33.977Z,12.55
2018-05-21T14:59:28.977Z,10.09
2018-05-21T15:05:23.992Z,10.64
2018-05-21T15:11:18.957Z,24.7
2018-05-21T15:17:13.981Z,25.26
2018-05-21T15:23:08.967Z,23.98
2018-05-21T15:29:03.977Z,13.39
2018-05-21T15:34:58.981Z,18.73
2018-05-21T15:40:53.988Z,16.47
2018-05-21T15:46:48.973Z,17.57
2018-05-21T15:52:44.009Z,15.4
2018-05-21T15:58:38.990Z,16.53
2018-05-21T16:04:33.983Z,12.6
2018-05-21T16:10:29.004Z,14.96
2018-05-21T16:16:23.988Z,14.27
2018-05-21T16:22:19.020Z,10.5
2018-05-21T16:28:13.975Z,12.03
2018-05-21T16:34:08.985Z,17.64
2018-05-21T16:40:03.984Z,18.6
2018-05-21T16:45:59.020Z,19.17
2018-05-21T16:51:54.044Z,19.73
2018-05-21T16:57:49.016Z,16.22
2018-05-21T17:03:43.977Z,15.39
2018-05-21T17:09:39.061Z,16.5
2018-05-21T17:15:34.001Z,18.23
2018-05-21T17:21:29.037Z,13.85
2018-05-21T17:27:24.031Z,11.21
2018-05-21T17:33:18.987Z,17.09
2018-05-21T17:39:14.016Z,11.13
2018-05-21T17:45:09.030Z,10.67
2018-05-21T17:51:04.064Z,12.7
2018-05-21T17:56:59.026Z,13.33
2018-05-21T18:02:54.031Z,13.27
2018-05-21T18:08:49.071Z,10.61
2018-05-21T18:14:44.014Z,16.54
2018-05-21T18:20:39.066Z,11.46
2018-05-21T18:26:34.013Z,12.71
2018-05-21T18:32:29.022Z,17.26
2018-05-21T18:38:24.010Z,13.15
2018-05-21T18:44:19.050Z,12.12
2018-05-21T18:50:14.008Z,10.81
2018-05-21T18:56:09.015Z,15.65
2018-05-21T19:02:04.365Z,13.68
2018-05-21T19:07:59.028Z,12.69
2018-05-21T19:13:54.076Z,10.93
2018-05-21T19:19:49.071Z,10.54
2018-05-21T19:25:44.047Z,14.18
2018-05-21T19:31:39.009Z,13.17
2018-05-21T19:37:34.040Z,19.47
2018-05-21T19:43:29.033Z,15.4
2018-05-21T19:49:24.009Z,11.59
2018-05-21T19:55:19.033Z,11.21
2018-05-21T20:01:14.024Z,12.07
2018-05-21T20:07:09.068Z,12.53
2018-05-21T20:13:04.030Z,14.34
2018-05-21T20:18:59.019Z,23.7
2018-05-21T20:24:54.018Z,12.72
2018-05-21T20:30:49.101Z,14.44
2018-05-21T20:36:44.080Z,23.12
2018-05-21T20:42:39.053Z,16.37
2018-05-21T20:48:34.049Z,15.59
2018-05-21T20:54:29.060Z,20.33
2018-05-21T21:00:24.010Z,18.27
2018-05-21T21:06:19.042Z,12.31
2018-05-21T21:12:14.095Z,17.2
2018-05-21T21:18:09.026Z,14.55
2018-05-21T21:24:04.041Z,12.63
2018-05-21T21:29:59.014Z,17.87
2018-05-21T21:35:54.009Z,10.24
2018-05-21T21:41:49.038Z,17.47
2018-05-21T21:47:44.023Z,12.71
2018-05-21T21:53:39.068Z,18.96
2018-05-21T21:59:34.038Z,18.82
2018-05-21T22:05:29.016Z,14.93
2018-05-21T22:11:24.021Z,13.71
2018-05-21T22:17:19.074Z,14.62
2018-05-21T22:23:14.058Z,17.44
2018-05-21T22:29:09.024Z,16.23
2018-05-21T22:35:04.023Z,17.74
2018-05-21T22:40:59.075Z,15.06
2018-05-21T22:46:54.047Z,18.44
2018-05-21T22:52:49.063Z,15.33
2018-05-21T22:58:44.064Z,19.2
2018-05-21T23:04:39.111Z,22.08
2018-05-21T23:10:34.047Z,17.02
2018-05-21T23:16:29.060Z,19.7
2018-05-21T23:22:24.066Z,15.9
2018-05-21T23:28:19.063Z,17.28
2018-05-21T23:34:14.084Z,18.73
2018-05-21T23:40:09.093Z,19.53
2018-05-21T23:46:04.096Z,24.6
2018-05-21T23:51:59.052Z,18.14
2018-05-21T23:57:54.060Z,18.13
